createdAt,value
2023-03-02T00:01:48.170Z,11.03
2023-03-02T00:04:21.985Z,11.77
2023-03-02T00:06:53.527Z,11.97
2023-03-02T00:09:21.607Z,10.47
2023-03-02T00:11:49.728Z,10.17
2023-03-02T00:14:18.067Z,10.13
2023-03-02T00:16:46.071Z,10.90
2023-03-02T00:19:14.089Z,10.93
2023-03-02T00:21:42.161Z,10.83
2023-03-02T00:24:11.611Z,11.20
2023-03-02T00:26:39.705Z,10.53
2023-03-02T00:29:07.968Z,11.00
2023-03-02T00:31:36.133Z,11.50
2023-03-02T00:34:04.231Z,10.00
2023-03-02T00:36:32.256Z,11.10
2023-03-02T00:41:51.816Z,10.80
2023-03-02T00:44:19.853Z,11.70
2023-03-02T00:46:47.902Z,9.97
2023-03-02T00:49:15.963Z,9.80
2023-03-02T00:51:43.957Z,11.97
2023-03-02T00:54:12.011Z,10.80
2023-03-02T00:56:40.058Z,10.80
2023-03-02T00:59:26.542Z,10.37
2023-03-02T01:01:58.111Z,11.97
2023-03-02T01:04:29.755Z,11.40
2023-03-02T01:06:58.206Z,12.10
2023-03-02T01:09:27.172Z,10.70
2023-03-02T01:11:55.698Z,10.47
2023-03-02T01:14:33.669Z,11.40
2023-03-02T01:17:01.657Z,9.70
2023-03-02T01:19:31.533Z,10.77
2023-03-02T01:21:59.688Z,11.87
2023-03-02T01:24:27.759Z,10.70
2023-03-02T01:26:58.055Z,11.20
2023-03-02T01:29:29.769Z,11.10
2023-03-02T01:31:58.228Z,10.70
2023-03-02T01:34:26.287Z,11.20
2023-03-02T01:36:54.319Z,10.83
2023-03-02T01:39:29.560Z,9.90
2023-03-02T01:41:57.844Z,10.63
2023-03-02T01:44:43.361Z,10.10
2023-03-02T01:47:16.116Z,11.50
2023-03-02T01:49:49.012Z,11.40
2023-03-02T01:52:18.148Z,11.10
2023-03-02T02:54:31.607Z,10.63
2023-03-02T02:57:25.948Z,11.03
2023-03-02T02:59:56.324Z,10.03
2023-03-02T03:02:27.294Z,10.37
2023-03-02T03:05:02.630Z,11.00
2023-03-02T03:07:32.136Z,10.20
2023-03-02T03:10:05.695Z,10.80
2023-03-02T03:12:35.659Z,10.67
2023-03-02T03:15:04.554Z,10.07
2023-03-02T03:18:44.574Z,9.43
2023-03-02T03:41:01.836Z,10.90
2023-03-02T03:50:47.892Z,10.30
2023-03-02T04:15:46.804Z,9.93
2023-03-02T04:19:24.732Z,9.20
2023-03-02T04:45:39.880Z,10.67
2023-03-02T04:48:10.186Z,10.07
2023-03-02T04:53:38.793Z,9.47
2023-03-02T04:59:09.850Z,10.47
2023-03-02T05:02:13.084Z,10.30
2023-03-02T05:04:45.845Z,9.80
2023-03-02T05:27:42.373Z,10.00
2023-03-02T05:30:37.780Z,9.93
2023-03-02T05:33:06.412Z,11.30
2023-03-02T05:35:44.108Z,9.30
2023-03-02T05:38:21.493Z,9.90
2023-03-02T05:40:52.811Z,9.60
2023-03-02T05:43:25.894Z,10.87
2023-03-02T05:45:56.152Z,10.00
2023-03-02T05:48:32.605Z,9.97
2023-03-02T05:51:03.870Z,9.27
2023-03-02T05:53:37.059Z,10.40
2023-03-02T05:56:06.982Z,9.83
2023-03-02T05:58:45.360Z,10.43
2023-03-02T06:01:20.964Z,10.07
2023-03-02T06:03:50.240Z,9.90
2023-03-02T06:06:19.098Z,9.70
2023-03-02T06:08:47.148Z,9.90
2023-03-02T06:30:09.717Z,10.47
2023-03-02T06:33:03.223Z,10.07
2023-03-02T06:35:31.318Z,9.10
2023-03-02T06:38:00.738Z,9.90
2023-03-02T06:40:29.917Z,10.17
2023-03-02T06:43:00.665Z,10.63
2023-03-02T06:45:33.647Z,9.93
2023-03-02T06:48:02.211Z,9.83
2023-03-02T06:50:30.208Z,9.80
2023-03-02T06:52:58.500Z,10.80
2023-03-02T06:55:28.393Z,10.67
2023-03-02T06:57:56.400Z,9.97
2023-03-02T07:00:28.469Z,10.17
2023-03-02T07:02:57.038Z,9.80
2023-03-02T07:05:25.364Z,9.87
2023-03-02T07:07:53.771Z,10.90
2023-03-02T07:10:21.813Z,9.53
2023-03-02T07:12:51.172Z,10.77
2023-03-02T07:15:19.668Z,9.70
2023-03-02T07:17:48.135Z,10.23
2023-03-02T07:20:18.595Z,10.47
2023-03-02T07:22:47.199Z,10.83
2023-03-02T07:25:15.359Z,9.50
2023-03-02T07:27:43.969Z,9.90
2023-03-02T07:30:14.952Z,9.40
2023-03-02T07:32:43.484Z,11.03
2023-03-02T07:35:11.605Z,10.90
2023-03-02T07:37:39.692Z,9.50
2023-03-02T07:40:08.844Z,10.67
2023-03-02T07:42:37.407Z,11.17
2023-03-02T07:45:06.093Z,10.73
2023-03-02T07:47:35.402Z,9.37
2023-03-02T07:50:03.602Z,10.10
2023-03-02T07:52:31.930Z,10.53
2023-03-02T07:54:59.885Z,10.77
2023-03-02T07:57:27.894Z,9.97
2023-03-02T07:59:55.839Z,10.00
2023-03-02T08:02:25.438Z,9.30
2023-03-02T08:04:55.188Z,11.10
2023-03-02T08:07:23.146Z,10.00
2023-03-02T08:09:51.454Z,9.90
2023-03-02T08:12:19.448Z,10.60
2023-03-02T08:14:48.735Z,9.73
2023-03-02T08:17:16.713Z,10.17
2023-03-02T08:19:44.754Z,10.20
2023-03-02T08:22:14.309Z,10.27
2023-03-02T08:24:42.915Z,10.00
2023-03-02T08:27:13.948Z,9.80
2023-03-02T08:29:42.387Z,10.23
2023-03-02T08:32:10.729Z,10.47
2023-03-02T08:34:38.808Z,9.77
2023-03-02T08:37:06.821Z,9.87
2023-03-02T08:39:36.171Z,7.47
2023-03-02T08:42:04.187Z,9.73
2023-03-02T08:44:32.147Z,10.07
2023-03-02T08:47:00.126Z,10.60
2023-03-02T08:49:28.092Z,9.30
2023-03-02T08:51:56.722Z,9.50
2023-03-02T08:54:24.669Z,9.60
2023-03-02T08:56:53.982Z,9.83
2023-03-02T08:59:22.122Z,9.07
2023-03-02T09:01:50.306Z,9.93
2023-03-02T09:04:18.318Z,9.67
2023-03-02T09:06:46.639Z,9.10
2023-03-02T09:09:16.161Z,9.67
2023-03-02T09:11:44.886Z,10.00
2023-03-02T09:14:14.351Z,9.60
2023-03-02T13:16:36.907Z,7.67
2023-03-02T13:19:14.892Z,8.20
2023-03-02T13:21:43.104Z,8.50
2023-03-02T13:24:29.733Z,7.60
2023-03-02T13:26:59.789Z,8.17
2023-03-02T13:29:31.730Z,9.13
2023-03-02T13:32:15.820Z,8.20
2023-03-02T13:34:50.127Z,8.97
2023-03-02T13:37:22.718Z,8.33
2023-03-02T13:39:58.527Z,8.60
2023-03-02T13:42:30.042Z,8.60
2023-03-02T13:44:58.073Z,8.73
2023-03-02T13:47:26.440Z,8.70
2023-03-02T13:49:55.806Z,7.77
2023-03-02T13:52:30.488Z,7.93
2023-03-02T13:54:58.587Z,7.73
2023-03-02T13:57:31.350Z,8.70
2023-03-02T14:00:00.211Z,8.57
2023-03-02T14:02:30.437Z,7.57
2023-03-02T14:04:59.831Z,8.33
2023-03-02T14:07:27.933Z,8.83
2023-03-02T14:09:57.606Z,8.60
2023-03-02T14:12:29.564Z,8.53
2023-03-02T14:14:59.544Z,9.50
2023-03-02T14:17:27.801Z,7.87
2023-03-02T14:19:56.458Z,7.73
2023-03-02T14:22:29.675Z,8.83
2023-03-02T14:24:57.715Z,7.93
2023-03-02T14:27:30.316Z,8.07
2023-03-02T14:29:58.987Z,9.03
2023-03-02T14:32:28.133Z,8.53
2023-03-02T14:34:56.163Z,7.20
2023-03-02T14:37:30.205Z,8.93
2023-03-02T14:39:58.784Z,8.50
2023-03-02T14:42:26.792Z,8.00
2023-03-02T14:44:54.845Z,8.50
2023-03-02T14:47:24.145Z,8.43
2023-03-02T14:49:53.576Z,7.70
2023-03-02T14:52:26.463Z,7.90
2023-03-02T14:54:58.820Z,7.93
2023-03-02T14:57:29.018Z,8.10
2023-03-02T14:59:59.807Z,8.43
2023-03-02T15:02:28.052Z,8.70
2023-03-02T15:04:57.633Z,8.00
2023-03-02T15:07:27.359Z,8.27
2023-03-02T15:09:57.530Z,8.00
2023-03-02T15:12:26.056Z,7.90
2023-03-02T15:14:54.082Z,8.23
2023-03-02T15:17:22.120Z,7.50
2023-03-02T15:19:50.119Z,7.20
2023-03-02T15:22:18.221Z,8.10
2023-03-02T15:24:46.273Z,7.70
2023-03-02T15:27:15.817Z,8.27
2023-03-02T15:29:45.787Z,7.80
2023-03-02T15:32:13.959Z,7.60
2023-03-02T15:34:42.360Z,7.80
2023-03-02T15:37:11.277Z,7.80
2023-03-02T15:39:39.401Z,7.67
2023-03-02T15:42:07.723Z,8.00
2023-03-02T15:44:37.018Z,7.13
2023-03-02T15:47:05.273Z,8.00
2023-03-02T15:49:33.322Z,7.43
2023-03-02T15:52:01.285Z,7.20
2023-03-02T15:54:29.915Z,7.40
2023-03-02T15:56:59.235Z,7.57
2023-03-02T15:59:29.417Z,7.53
2023-03-02T16:01:59.792Z,8.13
2023-03-02T16:04:28.679Z,7.60
2023-03-02T16:06:56.799Z,7.87
2023-03-02T16:09:25.792Z,8.10
2023-03-02T16:11:54.196Z,7.77
2023-03-02T16:14:22.156Z,7.97
2023-03-02T16:16:50.168Z,7.77
2023-03-02T16:19:20.247Z,7.33
2023-03-02T16:21:48.438Z,8.27
2023-03-02T16:24:17.183Z,7.65
2023-03-02T16:26:46.057Z,7.00
2023-03-02T16:29:14.772Z,7.97
2023-03-02T16:31:43.284Z,8.20
2023-03-02T16:34:11.504Z,7.40
2023-03-02T16:36:42.101Z,7.00
2023-03-02T16:39:11.837Z,7.90
2023-03-02T16:41:41.170Z,7.50
2023-03-02T16:44:09.256Z,6.87
2023-03-02T16:46:39.410Z,7.27
2023-03-02T16:49:07.687Z,7.60
2023-03-02T16:51:35.817Z,7.40
2023-03-02T16:54:05.668Z,7.57
2023-03-02T16:56:33.767Z,7.23
2023-03-02T16:59:01.747Z,7.67
2023-03-02T17:01:29.828Z,7.00
2023-03-02T17:03:57.939Z,7.30
2023-03-02T17:06:25.942Z,7.47
2023-03-02T17:08:54.019Z,6.93
2023-03-02T17:11:23.405Z,8.07
2023-03-02T17:13:51.373Z,7.60
2023-03-02T17:16:19.423Z,8.03
2023-03-02T17:18:47.694Z,7.90
2023-03-02T17:21:17.300Z,6.90
2023-03-02T17:23:47.927Z,7.53
2023-03-02T17:26:16.811Z,7.70
2023-03-02T17:28:46.158Z,7.23
2023-03-02T17:31:14.187Z,8.07
2023-03-02T17:33:42.152Z,7.00
2023-03-02T17:36:12.108Z,7.60
2023-03-02T17:38:40.523Z,7.40
2023-03-02T17:41:11.087Z,7.33
2023-03-02T17:43:40.847Z,6.83
2023-03-02T17:46:15.221Z,7.33
2023-03-02T17:48:43.777Z,7.83
2023-03-02T17:51:14.818Z,7.37
2023-03-02T17:53:43.036Z,7.90
2023-03-02T17:56:11.730Z,7.20
2023-03-02T17:58:45.109Z,6.67
2023-03-02T18:01:16.197Z,7.83
2023-03-02T18:03:45.023Z,7.00
2023-03-02T18:06:14.357Z,7.03
2023-03-02T18:08:42.349Z,7.27
2023-03-02T18:11:10.818Z,7.37
2023-03-02T18:13:40.206Z,7.40
2023-03-02T18:16:08.637Z,6.97
2023-03-02T18:18:38.526Z,7.70
2023-03-02T18:21:06.863Z,7.53
2023-03-02T18:23:35.119Z,7.20
2023-03-02T18:26:03.137Z,7.70
2023-03-02T18:28:31.195Z,8.10
2023-03-02T18:30:59.180Z,8.80
2023-03-02T18:33:27.493Z,6.53
2023-03-02T18:35:57.357Z,8.80
2023-03-02T18:38:30.630Z,7.80
2023-03-02T18:40:59.567Z,7.53
2023-03-02T18:43:28.560Z,8.20
2023-03-02T18:45:57.630Z,8.50
2023-03-02T18:48:25.677Z,8.50
2023-03-02T18:50:53.640Z,8.63
2023-03-02T18:53:22.976Z,8.47
2023-03-02T18:55:52.516Z,7.60
2023-03-02T18:58:22.072Z,8.13
2023-03-02T19:00:50.550Z,9.30
2023-03-02T19:03:19.093Z,8.67
2023-03-02T19:05:47.366Z,8.93
2023-03-02T19:08:15.374Z,8.97
2023-03-02T19:10:44.658Z,9.50
2023-03-02T19:13:12.722Z,8.70
2023-03-02T19:15:41.024Z,9.70
2023-03-02T19:18:09.046Z,8.70
2023-03-02T19:20:37.015Z,9.60
2023-03-02T19:23:04.975Z,9.10
2023-03-02T19:25:32.950Z,9.60
2023-03-02T19:28:02.271Z,9.67
2023-03-02T19:30:30.476Z,9.70
2023-03-02T19:32:58.630Z,9.50
2023-03-02T19:35:29.586Z,9.13
2023-03-02T19:37:57.855Z,9.60
2023-03-02T19:40:29.288Z,10.13
2023-03-02T19:42:57.736Z,9.40
2023-03-02T19:45:29.400Z,9.10
2023-03-02T19:47:58.092Z,9.63
2023-03-02T19:50:26.900Z,9.50
2023-03-02T19:52:57.755Z,9.90
2023-03-02T19:55:26.264Z,9.80
2023-03-02T19:57:59.928Z,9.03
2023-03-02T20:00:31.128Z,9.90
2023-03-02T20:02:59.388Z,9.40
2023-03-02T20:05:28.094Z,10.13
2023-03-02T20:07:56.530Z,9.87
2023-03-02T20:10:31.119Z,10.47
2023-03-02T20:12:59.817Z,9.20
2023-03-02T20:15:30.940Z,9.10
2023-03-02T20:18:02.276Z,9.50
2023-03-02T20:20:30.684Z,9.97
2023-03-02T20:23:00.098Z,9.57
2023-03-02T20:25:29.223Z,10.17
2023-03-02T20:27:58.077Z,9.97
2023-03-02T20:30:32.120Z,10.20
2023-03-02T20:33:01.341Z,10.17
2023-03-02T20:35:31.682Z,10.10
2023-03-02T20:38:01.516Z,9.93
2023-03-02T20:40:30.302Z,10.00
2023-03-02T20:42:58.340Z,9.37
2023-03-02T20:45:26.514Z,9.80
2023-03-02T20:47:56.179Z,10.80
2023-03-02T20:50:28.866Z,9.97
2023-03-02T20:52:57.139Z,10.40
2023-03-02T20:55:26.889Z,10.67
2023-03-02T20:57:55.244Z,11.27
2023-03-02T21:00:26.357Z,11.13
2023-03-02T21:02:57.154Z,9.73
2023-03-02T21:05:26.932Z,11.90
2023-03-02T21:07:55.488Z,11.00
2023-03-02T21:10:26.481Z,10.90
2023-03-02T21:12:54.887Z,11.10
2023-03-02T21:15:31.239Z,11.53
2023-03-02T21:18:00.699Z,12.13
2023-03-02T21:20:33.131Z,12.07
2023-03-02T21:23:01.112Z,11.60
2023-03-02T21:25:29.402Z,11.50
2023-03-02T21:27:58.049Z,12.23
2023-03-02T21:30:30.154Z,11.73
2023-03-02T21:32:59.855Z,11.83
2023-03-02T21:35:28.269Z,12.47
2023-03-02T21:37:58.238Z,12.67
2023-03-02T21:40:31.346Z,12.30
2023-03-02T21:43:00.455Z,11.10
2023-03-02T21:45:29.273Z,13.00
2023-03-02T21:47:57.251Z,13.23
2023-03-02T21:50:29.266Z,12.93
2023-03-02T21:52:59.400Z,13.40
2023-03-02T21:55:28.350Z,13.90
2023-03-02T21:57:56.804Z,12.33
2023-03-02T22:00:27.609Z,12.00
2023-03-02T22:02:56.080Z,13.87
2023-03-02T22:05:24.119Z,12.43
2023-03-02T22:07:53.489Z,13.40
2023-03-02T22:10:25.775Z,12.20
2023-03-02T22:12:56.645Z,13.20
2023-03-02T22:15:24.810Z,13.30
2023-03-02T22:17:52.880Z,13.60
2023-03-02T22:20:21.568Z,13.43
2023-03-02T22:22:50.761Z,13.27
2023-03-02T22:25:22.335Z,12.90
2023-03-02T22:27:50.357Z,11.97
2023-03-02T22:30:21.669Z,12.87
2023-03-02T22:32:50.427Z,12.53
2023-03-02T22:35:23.658Z,12.73
2023-03-02T22:37:52.918Z,13.90
2023-03-02T22:40:30.362Z,13.07
2023-03-02T22:43:12.908Z,13.50
2023-03-02T22:45:41.952Z,13.07
2023-03-02T22:48:16.417Z,12.10
2023-03-02T22:50:46.295Z,13.27
2023-03-02T22:53:25.426Z,12.27
2023-03-02T22:56:00.524Z,13.80
2023-03-02T22:58:42.540Z,12.40
2023-03-02T23:01:20.788Z,13.83
2023-03-02T23:03:51.230Z,13.10
2023-03-02T23:06:25.185Z,12.40
2023-03-02T23:08:54.517Z,12.90
2023-03-02T23:11:24.802Z,12.23
2023-03-02T23:13:53.761Z,12.33
2023-03-02T23:16:24.543Z,13.00
2023-03-02T23:18:54.905Z,12.93
2023-03-02T23:21:25.515Z,13.03
2023-03-02T23:23:54.875Z,13.90
2023-03-02T23:26:24.221Z,14.77
2023-03-02T23:28:52.192Z,14.63
2023-03-02T23:31:20.217Z,15.73
2023-03-02T23:33:48.602Z,14.80
2023-03-02T23:36:16.701Z,16.70
2023-03-02T23:38:44.733Z,14.73
2023-03-02T23:41:12.680Z,15.47
2023-03-02T23:43:42.402Z,17.47
2023-03-02T23:46:13.961Z,15.63
2023-03-02T23:48:42.248Z,15.90
2023-03-02T23:51:10.491Z,17.00
2023-03-02T23:53:39.055Z,16.77
2023-03-02T23:56:07.704Z,17.00
2023-03-02T23:58:35.762Z,17.70
